createdAt,value
2019-02-05T00:00:19.724Z,65.53
2019-02-05T00:02:46.538Z,66.00
2019-02-05T00:05:13.525Z,66.03
2019-02-05T00:07:40.026Z,65.48
2019-02-05T00:10:06.809Z,65.04
2019-02-05T00:12:33.382Z,65.02
2019-02-05T00:15:00.179Z,65.09
2019-02-05T00:17:26.717Z,65.43
2019-02-05T00:19:53.312Z,65.43
2019-02-05T00:22:19.906Z,64.76
2019-02-05T00:24:46.568Z,64.91
2019-02-05T00:27:13.158Z,65.30
2019-02-05T00:29:39.919Z,65.27
2019-02-05T00:32:06.473Z,65.32
2019-02-05T00:34:32.985Z,65.48
2019-02-05T00:36:59.568Z,65.29
2019-02-05T00:39:26.035Z,65.49
2019-02-05T00:41:52.972Z,65.57
2019-02-05T00:44:19.426Z,65.67
2019-02-05T00:46:45.948Z,65.50
2019-02-05T00:49:12.395Z,65.61
2019-02-05T00:51:40.128Z,65.67
2019-02-05T00:54:07.128Z,65.91
2019-02-05T00:56:33.931Z,65.66
2019-02-05T00:59:01.421Z,65.59
2019-02-05T01:01:27.941Z,66.27
2019-02-05T01:03:54.479Z,65.84
2019-02-05T01:06:21.242Z,65.67
2019-02-05T01:08:47.776Z,65.24
2019-02-05T01:11:14.288Z,64.91
2019-02-05T01:13:40.775Z,64.52
2019-02-05T01:16:07.380Z,64.24
2019-02-05T01:18:34.326Z,64.49
2019-02-05T01:21:02.386Z,63.58
2019-02-05T01:23:28.924Z,63.28
2019-02-05T01:25:55.381Z,62.77
2019-02-05T01:28:21.900Z,61.59
2019-02-05T01:30:48.498Z,61.68
2019-02-05T01:33:15.236Z,61.73
2019-02-05T01:35:42.152Z,62.00
2019-02-05T01:38:08.914Z,62.65
2019-02-05T01:40:35.421Z,62.13
2019-02-05T01:43:01.898Z,61.66
2019-02-05T01:45:28.372Z,62.08
2019-02-05T01:47:55.333Z,61.84
2019-02-05T01:50:23.801Z,62.08
2019-02-05T01:52:50.255Z,61.98
2019-02-05T01:55:17.013Z,62.20
2019-02-05T01:57:43.789Z,61.89
2019-02-05T02:00:13.460Z,62.24
2019-02-05T02:02:40.102Z,61.92
2019-02-05T02:05:07.291Z,62.10
2019-02-05T02:07:34.097Z,62.27
2019-02-05T02:10:00.625Z,62.54
2019-02-05T02:12:27.215Z,62.89
2019-02-05T02:14:54.669Z,62.98
2019-02-05T02:17:21.240Z,63.37
2019-02-05T02:19:47.699Z,63.67
2019-02-05T02:22:14.141Z,64.05
2019-02-05T02:24:40.888Z,64.28
2019-02-05T02:27:07.471Z,64.11
2019-02-05T02:29:34.054Z,64.11
2019-02-05T02:32:01.155Z,64.63
2019-02-05T02:34:27.652Z,64.75
2019-02-05T02:36:54.409Z,64.82
2019-02-05T02:39:21.058Z,65.00
2019-02-05T02:41:47.530Z,65.39
2019-02-05T02:44:14.048Z,65.71
2019-02-05T02:46:40.506Z,65.81
2019-02-05T02:49:06.970Z,65.95
2019-02-05T02:51:33.514Z,66.08
2019-02-05T02:54:00.195Z,65.84
2019-02-05T02:56:26.673Z,66.09
2019-02-05T02:58:53.148Z,65.60
2019-02-05T03:01:19.702Z,65.83
2019-02-05T03:03:46.302Z,65.95
2019-02-05T03:06:13.206Z,65.63
2019-02-05T03:08:39.786Z,66.15
2019-02-05T03:11:06.687Z,66.18
2019-02-05T03:13:33.591Z,66.59
2019-02-05T03:16:00.192Z,66.66
2019-02-05T03:18:28.777Z,66.96
2019-02-05T03:20:55.526Z,66.98
2019-02-05T03:23:22.313Z,67.03
2019-02-05T03:25:49.079Z,67.16
2019-02-05T03:28:15.884Z,67.24
2019-02-05T03:30:42.378Z,66.97
2019-02-05T03:33:08.828Z,67.09
2019-02-05T03:35:36.116Z,67.41
2019-02-05T03:38:03.127Z,67.62
2019-02-05T03:41:00.592Z,67.73
2019-02-05T03:43:27.247Z,68.12
2019-02-05T03:45:55.156Z,68.39
2019-02-05T03:48:22.205Z,68.60
2019-02-05T03:50:50.963Z,68.65
2019-02-05T03:53:19.072Z,69.27
2019-02-05T03:56:01.033Z,69.19
2019-02-05T03:58:36.099Z,69.31
2019-02-05T04:01:35.741Z,69.00
2019-02-05T04:04:34.749Z,69.06
2019-02-05T04:07:18.849Z,69.06
2019-02-05T04:09:58.741Z,68.72
2019-02-05T04:13:20.404Z,68.59
2019-02-05T04:16:04.921Z,68.15
2019-02-05T04:19:06.151Z,68.82
2019-02-05T04:22:26.766Z,69.27
2019-02-05T04:25:19.215Z,68.81
2019-02-05T04:27:58.368Z,69.18
2019-02-05T04:30:57.778Z,69.06
2019-02-05T04:34:21.428Z,68.72
2019-02-05T04:37:39.329Z,68.37
2019-02-05T04:40:31.024Z,68.17
2019-02-05T04:43:20.193Z,67.84
2019-02-05T04:46:21.852Z,67.46
2019-02-05T04:49:33.611Z,67.98
2019-02-05T04:52:29.416Z,67.59
2019-02-05T04:55:36.532Z,67.67
2019-02-05T04:58:25.040Z,67.73
2019-02-05T05:01:22.521Z,68.00
2019-02-05T05:04:20.692Z,68.16
2019-02-05T05:07:27.930Z,68.82
2019-02-05T05:09:58.285Z,68.66
2019-02-05T05:12:26.875Z,68.71
2019-02-05T05:14:54.675Z,68.62
2019-02-05T05:17:21.580Z,68.77
2019-02-05T05:19:48.786Z,68.65
2019-02-05T05:22:15.837Z,68.88
2019-02-05T05:24:42.953Z,69.34
2019-02-05T05:27:10.815Z,68.77
2019-02-05T05:29:37.387Z,68.62
2019-02-05T05:32:04.487Z,68.23
2019-02-05T05:34:31.041Z,68.68
2019-02-05T05:36:56.901Z,69.44
2019-02-05T05:39:23.415Z,69.20
2019-02-05T05:41:49.907Z,69.02
2019-02-05T05:44:16.762Z,68.81
2019-02-05T05:46:43.483Z,69.10
2019-02-05T05:49:10.442Z,68.88
2019-02-05T05:51:37.246Z,68.97
2019-02-05T05:54:03.891Z,68.58
2019-02-05T05:56:30.540Z,68.71
2019-02-05T05:58:57.346Z,68.50
2019-02-05T06:01:24.877Z,68.08
2019-02-05T06:03:51.385Z,68.36
2019-02-05T06:06:17.906Z,68.58
2019-02-05T06:08:44.481Z,68.79
2019-02-05T06:11:10.997Z,68.89
2019-02-05T06:13:37.570Z,69.01
2019-02-05T06:16:04.137Z,69.33
2019-02-05T06:18:30.802Z,69.32
2019-02-05T06:20:57.262Z,69.63
2019-02-05T06:23:23.785Z,69.69
2019-02-05T06:25:50.679Z,69.97
2019-02-05T06:28:17.315Z,70.13
2019-02-05T06:30:44.248Z,70.33
2019-02-05T06:33:11.698Z,70.16
2019-02-05T06:35:38.236Z,70.34
2019-02-05T06:38:04.758Z,70.70
2019-02-05T06:40:31.543Z,70.62
2019-02-05T06:42:58.047Z,70.88
2019-02-05T06:45:24.795Z,71.29
2019-02-05T06:47:51.790Z,71.47
2019-02-05T06:50:18.267Z,71.73
2019-02-05T06:52:49.027Z,71.92
2019-02-05T06:55:15.803Z,72.05
2019-02-05T06:57:42.546Z,72.15
2019-02-05T07:00:13.129Z,71.88
2019-02-05T07:02:39.594Z,72.16
2019-02-05T07:05:07.416Z,72.15
2019-02-05T07:07:33.892Z,72.42
2019-02-05T07:10:01.630Z,72.23
2019-02-05T07:12:28.544Z,72.40
2019-02-05T07:14:55.068Z,72.28
2019-02-05T07:17:21.560Z,72.34
2019-02-05T07:19:48.088Z,72.57
2019-02-05T07:22:17.776Z,72.42
2019-02-05T07:24:44.596Z,72.38
2019-02-05T07:27:11.097Z,72.51
2019-02-05T07:29:37.717Z,72.81
2019-02-05T07:32:04.817Z,72.72
2019-02-05T07:34:31.467Z,72.78
2019-02-05T07:36:58.396Z,72.95
2019-02-05T07:39:27.543Z,72.94
2019-02-05T07:41:53.416Z,72.72
2019-02-05T07:44:19.919Z,73.16
2019-02-05T07:46:46.494Z,73.03
2019-02-05T07:49:13.115Z,73.19
2019-02-05T07:51:39.652Z,73.12
2019-02-05T07:54:09.796Z,72.97
2019-02-05T07:56:41.029Z,72.89
2019-02-05T07:59:17.294Z,72.84
2019-02-05T08:01:46.948Z,72.99
2019-02-05T08:04:25.791Z,73.01
2019-02-05T08:07:01.977Z,73.01
2019-02-05T08:09:40.672Z,73.46
2019-02-05T08:12:17.667Z,73.65
2019-02-05T08:14:52.529Z,73.13
2019-02-05T08:17:23.670Z,73.37
2019-02-05T08:19:54.639Z,73.23
2019-02-05T08:22:32.263Z,72.87
2019-02-05T08:25:02.890Z,72.70
2019-02-05T08:27:31.994Z,72.15
2019-02-05T08:29:58.961Z,71.94
2019-02-05T08:32:35.495Z,72.11
2019-02-05T08:35:07.982Z,71.91
2019-02-05T08:37:43.098Z,71.74
2019-02-05T08:40:14.197Z,71.65
2019-02-05T08:42:49.127Z,71.75
2019-02-05T08:45:26.596Z,71.32
2019-02-05T08:47:54.603Z,71.27
2019-02-05T08:50:22.687Z,71.47
2019-02-05T08:52:49.417Z,71.36
2019-02-05T08:55:17.362Z,71.39
2019-02-05T08:57:44.108Z,71.51
2019-02-05T09:00:16.455Z,71.06
2019-02-05T09:02:44.447Z,71.16
2019-02-05T09:05:11.412Z,71.00
2019-02-05T09:07:37.998Z,70.85
2019-02-05T09:10:05.602Z,70.94
2019-02-05T09:12:32.133Z,71.13
2019-02-05T09:15:06.806Z,71.03
2019-02-05T09:17:33.278Z,70.97
2019-02-05T09:20:04.826Z,70.96
2019-02-05T09:22:31.446Z,70.79
2019-02-05T09:24:58.239Z,70.78
2019-02-05T09:27:24.985Z,70.45
2019-02-05T09:29:51.493Z,70.64
2019-02-05T09:32:18.874Z,70.32
2019-02-05T09:34:45.398Z,70.24
2019-02-05T09:37:12.982Z,70.28
2019-02-05T09:39:39.486Z,70.61
2019-02-05T09:42:10.621Z,70.62
2019-02-05T09:44:37.229Z,70.75
2019-02-05T09:47:04.077Z,70.05
2019-02-05T09:49:30.819Z,70.43
2019-02-05T09:51:57.359Z,70.69
2019-02-05T09:54:24.091Z,70.95
2019-02-05T09:56:50.589Z,71.23
2019-02-05T09:59:17.146Z,71.36
2019-02-05T10:01:44.220Z,71.59
2019-02-05T10:04:10.808Z,71.77
2019-02-05T10:06:37.407Z,71.78
2019-02-05T10:09:06.874Z,71.46
2019-02-05T10:11:34.025Z,71.60
2019-02-05T10:14:00.779Z,71.66
2019-02-05T10:16:27.294Z,71.59
2019-02-05T10:18:55.056Z,71.75
2019-02-05T10:21:21.703Z,72.11
2019-02-05T10:23:48.483Z,71.94
2019-02-05T10:26:15.033Z,72.25
2019-02-05T10:28:41.499Z,72.13
2019-02-05T10:31:08.285Z,72.15
2019-02-05T10:33:34.919Z,72.90
2019-02-05T10:36:02.489Z,73.45
2019-02-05T10:38:29.339Z,74.06
2019-02-05T10:40:56.282Z,74.51
2019-02-05T10:43:26.019Z,74.63
2019-02-05T10:45:53.042Z,74.70
2019-02-05T10:48:20.080Z,74.50
2019-02-05T10:50:47.522Z,74.54
2019-02-05T10:53:14.083Z,74.98
2019-02-05T10:55:42.096Z,74.89
2019-02-05T10:58:09.071Z,74.76
2019-02-05T11:00:35.644Z,74.55
2019-02-05T11:03:02.859Z,74.79
2019-02-05T11:05:30.265Z,74.75
2019-02-05T11:07:57.106Z,74.55
2019-02-05T11:10:23.736Z,74.11
2019-02-05T11:12:50.606Z,73.71
2019-02-05T11:15:19.245Z,73.10
2019-02-05T11:17:45.933Z,72.53
2019-02-05T11:20:15.045Z,72.29
2019-02-05T11:22:42.465Z,71.95
2019-02-05T11:25:09.224Z,71.98
2019-02-05T11:27:35.941Z,71.71
2019-02-05T11:30:04.082Z,71.46
2019-02-05T11:32:30.721Z,71.75
2019-02-05T11:34:57.217Z,71.61
2019-02-05T11:37:23.991Z,71.61
2019-02-05T11:39:50.512Z,71.69
2019-02-05T11:42:17.501Z,71.73
2019-02-05T11:44:44.417Z,71.77
2019-02-05T11:47:12.083Z,71.47
2019-02-05T11:49:38.732Z,71.27
2019-02-05T11:52:05.274Z,71.59
2019-02-05T11:54:31.969Z,71.30
2019-02-05T11:56:58.490Z,70.85
2019-02-05T11:59:24.971Z,70.55
2019-02-05T12:01:51.500Z,70.59
2019-02-05T12:04:18.024Z,70.78
2019-02-05T12:06:45.021Z,70.62
2019-02-05T12:09:20.122Z,70.62
2019-02-05T12:11:46.835Z,70.66
2019-02-05T12:14:13.356Z,70.84
2019-02-05T12:16:40.143Z,70.51
2019-02-05T12:19:07.068Z,70.30
2019-02-05T12:21:33.574Z,70.75
2019-02-05T12:24:00.284Z,70.65
2019-02-05T12:26:27.326Z,70.67
2019-02-05T12:28:53.812Z,71.23
2019-02-05T12:31:20.354Z,71.73
2019-02-05T12:33:47.021Z,72.78
2019-02-05T12:36:13.525Z,73.10
2019-02-05T12:38:40.030Z,73.20
2019-02-05T12:41:06.888Z,73.58
2019-02-05T12:43:33.341Z,73.58
2019-02-05T12:45:59.968Z,73.74
2019-02-05T12:48:29.774Z,72.89
2019-02-05T12:50:56.551Z,73.08
2019-02-05T12:53:23.520Z,73.03
2019-02-05T12:55:49.998Z,72.66
2019-02-05T12:58:17.720Z,72.20
2019-02-05T13:00:56.446Z,72.03
2019-02-05T13:03:15.496Z,71.66
2019-02-05T13:05:42.768Z,72.11
2019-02-05T13:08:09.388Z,71.96
2019-02-05T13:10:38.432Z,71.95
2019-02-05T13:13:06.062Z,72.34
2019-02-05T13:15:32.822Z,71.93
2019-02-05T13:18:05.023Z,71.84
2019-02-05T13:20:31.931Z,72.14
2019-02-05T13:22:59.035Z,72.29
2019-02-05T13:25:26.847Z,72.70
2019-02-05T13:27:53.590Z,72.25
2019-02-05T13:30:22.404Z,72.34
2019-02-05T13:32:49.549Z,72.89
2019-02-05T13:35:16.763Z,72.78
2019-02-05T13:37:43.352Z,73.07
2019-02-05T13:40:13.083Z,72.83
2019-02-05T13:42:40.042Z,72.70
2019-02-05T13:45:06.900Z,72.64
2019-02-05T13:47:33.524Z,72.46
2019-02-05T13:50:00.530Z,72.15
2019-02-05T13:52:27.527Z,72.08
2019-02-05T13:54:54.343Z,72.26
2019-02-05T13:57:27.096Z,71.89
2019-02-05T13:59:53.641Z,71.82
2019-02-05T14:02:21.844Z,71.61
2019-02-05T14:04:48.375Z,71.45
2019-02-05T14:07:14.932Z,71.72
2019-02-05T14:09:41.397Z,72.27
2019-02-05T14:12:11.235Z,72.22
2019-02-05T14:14:38.116Z,72.20
2019-02-05T14:17:08.101Z,72.09
2019-02-05T14:19:34.581Z,71.87
2019-02-05T14:22:01.371Z,71.97
2019-02-05T14:24:27.931Z,71.89
2019-02-05T14:26:54.718Z,72.09
2019-02-05T14:29:21.309Z,72.16
2019-02-05T14:31:47.794Z,72.71
2019-02-05T14:34:14.386Z,72.98
2019-02-05T14:36:40.921Z,73.56
2019-02-05T14:39:08.749Z,73.57
2019-02-05T14:41:36.490Z,73.76
2019-02-05T14:44:03.919Z,74.00
2019-02-05T14:46:30.512Z,74.23
2019-02-05T14:48:57.022Z,74.27
2019-02-05T14:51:24.091Z,74.18
2019-02-05T14:53:50.675Z,74.23
2019-02-05T14:56:17.746Z,74.45
2019-02-05T14:58:44.322Z,74.21
2019-02-05T15:01:11.196Z,74.26
2019-02-05T15:03:37.717Z,73.96
2019-02-05T15:06:04.396Z,73.73
2019-02-05T15:08:31.021Z,73.66
2019-02-05T15:10:57.703Z,73.68
2019-02-05T15:13:25.299Z,73.63
2019-02-05T15:15:51.864Z,73.42
2019-02-05T15:18:20.663Z,73.79
2019-02-05T15:20:48.106Z,73.83
2019-02-05T15:23:14.639Z,73.99
2019-02-05T15:25:41.270Z,74.24
2019-02-05T15:28:08.170Z,74.68
2019-02-05T15:30:39.662Z,74.93
2019-02-05T15:33:46.829Z,75.02
2019-02-05T15:36:45.019Z,75.27
2019-02-05T15:39:12.864Z,75.53
2019-02-05T15:41:40.863Z,75.36
2019-02-05T15:44:07.815Z,75.37
2019-02-05T15:46:34.668Z,75.84
2019-02-05T15:49:01.152Z,76.09
2019-02-05T15:51:28.473Z,76.35
2019-02-05T15:53:54.946Z,76.70
2019-02-05T15:56:21.555Z,77.12
2019-02-05T15:58:48.128Z,77.45
2019-02-05T16:01:15.375Z,77.59
2019-02-05T16:03:47.078Z,77.82
2019-02-05T16:06:13.857Z,78.14
2019-02-05T16:08:41.088Z,78.41
2019-02-05T16:11:08.830Z,78.61
2019-02-05T16:13:36.857Z,79.13
2019-02-05T16:16:03.556Z,79.33
2019-02-05T16:18:30.149Z,79.62
2019-02-05T16:20:58.276Z,80.00
2019-02-05T16:23:25.038Z,80.16
2019-02-05T16:25:52.665Z,80.39
2019-02-05T16:28:19.271Z,80.40
2019-02-05T16:30:45.822Z,80.69
2019-02-05T16:33:12.408Z,81.02
2019-02-05T16:35:39.004Z,81.15
2019-02-05T16:38:05.940Z,81.34
2019-02-05T16:40:34.250Z,81.50
2019-02-05T16:43:00.872Z,81.81
2019-02-05T16:45:28.744Z,82.19
2019-02-05T16:47:55.750Z,82.18
2019-02-05T16:50:24.829Z,82.48
2019-02-05T16:52:51.850Z,82.34
2019-02-05T16:55:18.388Z,82.30
2019-02-05T16:57:45.209Z,82.22
2019-02-05T17:00:17.478Z,82.66
2019-02-05T17:02:45.305Z,82.76
2019-02-05T17:05:12.374Z,82.95
2019-02-05T17:07:42.122Z,83.01
2019-02-05T17:10:10.193Z,83.22
2019-02-05T17:12:36.660Z,83.16
2019-02-05T17:15:05.060Z,83.27
2019-02-05T17:17:32.003Z,83.13
2019-02-05T17:19:58.493Z,83.23
2019-02-05T17:22:25.583Z,83.43
2019-02-05T17:24:52.132Z,83.37
2019-02-05T17:27:18.614Z,83.71
2019-02-05T17:29:45.151Z,83.99
2019-02-05T17:32:11.831Z,83.98
2019-02-05T17:34:38.713Z,83.87
2019-02-05T17:37:05.394Z,83.77
2019-02-05T17:39:32.391Z,84.03
2019-02-05T17:41:59.461Z,84.42
2019-02-05T17:44:26.046Z,84.71
2019-02-05T17:46:52.859Z,85.18
2019-02-05T17:49:19.594Z,85.19
2019-02-05T17:51:46.698Z,85.49
2019-02-05T17:54:15.130Z,86.24
2019-02-05T17:56:41.852Z,86.27
2019-02-05T17:59:09.309Z,85.85
2019-02-05T18:01:36.007Z,85.62
2019-02-05T18:04:03.088Z,85.28
2019-02-05T18:06:29.693Z,85.78
2019-02-05T18:08:56.293Z,86.38
2019-02-05T18:11:23.070Z,86.50
2019-02-05T18:13:49.674Z,86.86
2019-02-05T18:16:18.461Z,86.86
2019-02-05T18:18:45.283Z,87.41
2019-02-05T18:21:12.281Z,88.40
2019-02-05T18:23:38.822Z,89.33
2019-02-05T18:26:06.593Z,89.83
2019-02-05T18:28:33.481Z,90.05
2019-02-05T18:31:00.039Z,89.74
2019-02-05T18:33:26.665Z,89.27
2019-02-05T18:35:53.477Z,89.41
2019-02-05T18:38:20.469Z,90.20
2019-02-05T18:40:47.023Z,90.74
2019-02-05T18:43:13.673Z,90.83
2019-02-05T18:45:40.478Z,90.31
2019-02-05T18:48:07.752Z,89.29
2019-02-05T18:50:34.437Z,89.14
2019-02-05T18:53:00.958Z,89.11
2019-02-05T18:55:28.970Z,89.43
2019-02-05T18:58:08.430Z,89.59
2019-02-05T19:00:31.474Z,90.25
2019-02-05T19:02:59.910Z,90.68
2019-02-05T19:05:27.655Z,90.92
2019-02-05T19:07:54.523Z,91.14
2019-02-05T19:10:22.807Z,91.08
2019-02-05T19:12:49.478Z,91.09
2019-02-05T19:15:18.458Z,90.97
2019-02-05T19:17:45.295Z,90.98
2019-02-05T19:20:12.963Z,91.39
2019-02-05T19:22:39.775Z,91.36
2019-02-05T19:25:19.143Z,91.16
2019-02-05T19:27:46.121Z,90.62
2019-02-05T19:30:13.096Z,90.74
2019-02-05T19:32:39.736Z,90.95
2019-02-05T19:35:06.610Z,90.95
2019-02-05T19:37:33.861Z,91.04
2019-02-05T19:40:00.896Z,91.01
2019-02-05T19:42:28.237Z,91.16
2019-02-05T19:45:02.320Z,91.43
2019-02-05T19:47:32.067Z,91.54
2019-02-05T19:50:00.032Z,91.37
2019-02-05T19:52:28.001Z,91.30
2019-02-05T19:54:55.043Z,91.31
2019-02-05T19:57:21.692Z,91.45
2019-02-05T19:59:49.659Z,91.39
2019-02-05T20:02:16.441Z,91.21
2019-02-05T20:04:43.603Z,91.17
2019-02-05T20:07:10.873Z,91.19
2019-02-05T20:09:37.904Z,91.48
2019-02-05T20:12:05.804Z,91.55
2019-02-05T20:14:32.605Z,91.39
2019-02-05T20:17:04.916Z,91.45
2019-02-05T20:19:32.856Z,91.50
2019-02-05T20:22:01.649Z,91.59
2019-02-05T20:24:29.054Z,91.62
2019-02-05T20:26:58.126Z,91.49
2019-02-05T20:29:24.918Z,91.10
2019-02-05T20:31:52.738Z,91.02
2019-02-05T20:34:21.097Z,91.24
2019-02-05T20:36:48.524Z,91.12
2019-02-05T20:39:17.323Z,91.11
2019-02-05T20:41:44.529Z,91.45
2019-02-05T20:44:12.163Z,91.21
2019-02-05T20:46:39.591Z,91.24
2019-02-05T20:49:06.308Z,91.17
2019-02-05T20:51:37.340Z,91.06
2019-02-05T20:54:05.317Z,91.22
2019-02-05T20:56:39.817Z,91.08
2019-02-05T20:59:07.158Z,90.75
2019-02-05T21:01:38.920Z,90.55
2019-02-05T21:04:09.784Z,90.44
2019-02-05T21:06:50.607Z,90.23
2019-02-05T21:09:20.652Z,90.04
2019-02-05T21:11:50.105Z,89.85
2019-02-05T21:14:17.052Z,90.03
2019-02-05T21:16:48.452Z,89.44
2019-02-05T21:19:22.534Z,89.15
2019-02-05T21:21:50.321Z,88.88
2019-02-05T21:24:19.521Z,88.80
2019-02-05T21:26:46.404Z,88.76
2019-02-05T21:29:13.074Z,88.73
2019-02-05T21:31:41.781Z,88.47
2019-02-05T21:34:15.262Z,88.00
2019-02-05T21:36:37.555Z,87.98
2019-02-05T21:39:08.409Z,87.88
2019-02-05T21:41:35.307Z,87.72
2019-02-05T21:44:01.879Z,87.57
2019-02-05T21:46:28.626Z,87.85
2019-02-05T21:48:55.184Z,88.41
2019-02-05T21:51:21.957Z,88.41
2019-02-05T21:54:30.983Z,88.54
2019-02-05T21:56:58.162Z,88.69
2019-02-05T21:59:24.738Z,88.21
2019-02-05T22:01:51.644Z,87.94
2019-02-05T22:04:26.619Z,87.74
2019-02-05T22:06:46.779Z,87.76
2019-02-05T22:09:13.739Z,88.05
2019-02-05T22:11:41.107Z,88.23
2019-02-05T22:14:08.256Z,88.21
2019-02-05T22:16:35.111Z,87.93
2019-02-05T22:19:02.351Z,88.05
2019-02-05T22:21:29.108Z,87.85
2019-02-05T22:23:55.770Z,87.56
2019-02-05T22:26:22.330Z,87.39
2019-02-05T22:28:49.654Z,87.23
2019-02-05T22:31:16.145Z,87.50
2019-02-05T22:33:43.027Z,87.69
2019-02-05T22:36:09.415Z,87.70
2019-02-05T22:38:36.327Z,87.88
2019-02-05T22:41:03.285Z,88.32
2019-02-05T22:43:29.789Z,88.34
2019-02-05T22:45:56.313Z,88.42
2019-02-05T22:48:23.992Z,88.40
2019-02-05T22:50:50.808Z,88.13
2019-02-05T22:53:19.294Z,88.27
2019-02-05T22:55:46.405Z,88.81
2019-02-05T22:58:13.325Z,88.84
2019-02-05T23:00:51.286Z,88.55
2019-02-05T23:03:24.576Z,87.93
2019-02-05T23:06:25.504Z,88.41
2019-02-05T23:08:52.858Z,88.62
2019-02-05T23:11:44.569Z,88.82
2019-02-05T23:14:11.535Z,88.89
2019-02-05T23:16:38.655Z,89.01
2019-02-05T23:19:05.514Z,88.90
2019-02-05T23:21:36.152Z,88.91
2019-02-05T23:24:03.600Z,88.89
2019-02-05T23:26:30.131Z,88.83
2019-02-05T23:28:56.743Z,88.84
2019-02-05T23:31:23.254Z,88.75
2019-02-05T23:33:49.825Z,88.88
2019-02-05T23:36:16.561Z,88.94
2019-02-05T23:38:43.656Z,89.18
2019-02-05T23:41:10.561Z,89.12
2019-02-05T23:43:37.152Z,89.23
2019-02-05T23:46:03.887Z,89.36
2019-02-05T23:48:31.361Z,89.58
2019-02-05T23:50:57.841Z,89.66
2019-02-05T23:53:24.424Z,89.80
2019-02-05T23:55:51.167Z,89.75
2019-02-05T23:58:18.884Z,90.10
